Central, UT (84722)

7:30 PM MST on November 22, 2014 (GMT -0700)
Pine Valley | Change Station
CLOSE
Current Station
Personal Weather Station
Location: Pine Valley, UT
Elevation: 6640 ft
Nearby Weather Stations

Elev 6640 ft 37.39 °N, 113.53 °W | Updated 10 minutes ago

Clear
Clear
38.1 °F
Feels Like 38 °F
N
0.0
Wind Variable Wind from NNE

Today
High -- | Low -- °F
--% Chance of Precip.
Yesterday
High -- | Low -- °F
Precip. -- in
7:21 AM 5:19 PM
New Moon, 0% visible
Pressure 29.78 in
Visibility 10.0 miles
Clouds Clear
Windchill 38 °F
Dew Point 23 °F
Humidity 54%
Rainfall 0.00 in
Snow Depth Not available.
UV 0 out of 12
Pollen 2.40 out of 12
Air Quality Not available.
Flu Activity Not available.
METAR KCDC 230153Z AUTO 20015G24KT 10SM CLR 09/M07 A2984 RMK AO2 PK WND 21031/0103 SLP085 T00941067

More Conditions Fewer Conditions

Pressure 29.78 in
Visibility 10.0 miles
Clouds Clear
Windchill 38 °F
Dew Point 23 °F
Humidity 54%
Rainfall 0.00 in
Snow Depth Not available.
UV 0 out of 12
Pollen 2.40 out of 12
Air Quality Not available.
Flu Activity Not available.
METAR KCDC 230153Z AUTO 20015G24KT 10SM CLR 09/M07 A2984 RMK AO2 PK WND 21031/0103 SLP085 T00941067

More Conditions Fewer Conditions

10-Day Weather Forecast

Almanac

Astronomy

Nov. 22, 2014 Rise Set
Actual Time
Civil Twilight
Nautical Twilight
Astronomical Twilight
Moon
Length of Visible Light
Length of Day
Tomorrow will be .
, % of the Moon is Illuminated

Today's Extremes

State Highs State Lows

Community

WunderPhotos

Upload Photos

1,772,977 photos uploaded!

WunderBlogs® & News

Nearby

Air Quality

  Air Quality AQ Index Pollutant
Not available.

Snow Depth

Station Depth Elevation

Earthquake Activity

City Distance Mag. Time & Date
Minimum magnitude displayed is 2.5.

Coastal Water Temperatures

Place Temperature

Nearby Weather Stations